createdAt,value
2019-03-21T00:02:01.569Z,31.80
2019-03-21T00:04:31.988Z,28.70
2019-03-21T00:07:02.413Z,34.53
2019-03-21T00:09:32.957Z,27.60
2019-03-21T00:12:09.032Z,29.60
2019-03-21T00:15:03.619Z,25.37
2019-03-21T00:17:40.051Z,24.30
2019-03-21T00:20:17.736Z,34.50
2019-03-21T00:22:48.243Z,31.77
2019-03-21T00:25:21.698Z,37.90
2019-03-21T00:27:51.966Z,24.67
2019-03-21T00:30:23.040Z,46.90
2019-03-21T00:32:53.837Z,28.33
2019-03-21T00:35:24.345Z,28.70
2019-03-21T00:37:54.794Z,26.83
2019-03-21T00:40:28.645Z,37.30
2019-03-21T00:43:00.513Z,19.77
2019-03-21T00:45:31.044Z,31.53
2019-03-21T00:48:02.398Z,27.07
2019-03-21T00:50:32.694Z,29.67
2019-03-21T00:53:02.870Z,35.83
2019-03-21T00:55:34.408Z,27.00
2019-03-21T00:58:04.964Z,28.80
2019-03-21T01:00:40.174Z,29.13
2019-03-21T01:03:11.540Z,32.23
2019-03-21T01:05:42.135Z,23.77
2019-03-21T01:08:12.640Z,27.10
2019-03-21T01:10:43.105Z,32.97
2019-03-21T01:13:13.743Z,29.80
2019-03-21T01:15:44.368Z,34.13
2019-03-21T01:18:14.900Z,32.30
2019-03-21T01:20:45.315Z,32.50
2019-03-21T01:23:15.732Z,29.47
2019-03-21T01:25:51.493Z,31.90
2019-03-21T01:28:22.060Z,29.73
2019-03-21T01:30:52.300Z,29.73
2019-03-21T01:33:22.681Z,29.60
2019-03-21T01:35:53.038Z,30.83
2019-03-21T01:38:23.335Z,27.40
2019-03-21T01:40:53.911Z,28.67
2019-03-21T01:43:24.544Z,25.83
2019-03-21T01:45:54.930Z,30.90
2019-03-21T01:48:25.394Z,16.00
2019-03-21T01:50:55.790Z,27.43
2019-03-21T01:53:26.353Z,28.53
2019-03-21T01:55:56.900Z,31.87
2019-03-21T01:58:27.195Z,31.47
2019-03-21T02:00:57.501Z,27.60
2019-03-21T02:03:27.807Z,47.40
2019-03-21T02:05:58.080Z,43.20
2019-03-21T02:08:28.494Z,42.57
2019-03-21T02:10:58.904Z,27.30
2019-03-21T02:13:29.373Z,35.17
2019-03-21T02:15:59.749Z,29.63
2019-03-21T02:18:30.107Z,41.20
2019-03-21T02:21:00.506Z,51.63
2019-03-21T02:23:30.838Z,40.80
2019-03-21T02:26:01.103Z,42.67
2019-03-21T02:28:31.315Z,36.70
2019-03-21T02:31:01.612Z,46.20
2019-03-21T02:33:32.932Z,44.07
2019-03-21T02:36:03.337Z,21.23
2019-03-21T02:38:33.795Z,29.67
2019-03-21T02:41:05.986Z,32.27
2019-03-21T02:43:36.697Z,35.83
2019-03-21T02:46:07.248Z,27.93
2019-03-21T02:48:37.552Z,28.10
2019-03-21T02:51:08.389Z,35.77
2019-03-21T02:53:38.870Z,34.13
2019-03-21T02:56:11.493Z,36.60
2019-03-21T02:58:41.862Z,26.17
2019-03-21T03:01:12.303Z,31.73
2019-03-21T03:03:42.670Z,37.00
2019-03-21T03:06:14.493Z,32.53
2019-03-21T03:15:26.503Z,39.13
2019-03-21T03:17:57.012Z,28.47
2019-03-21T03:20:27.319Z,28.33
2019-03-21T03:22:57.597Z,35.57
2019-03-21T03:25:27.995Z,35.03
2019-03-21T03:28:01.362Z,32.60
2019-03-21T03:30:31.640Z,25.17
2019-03-21T03:33:02.034Z,47.10
2019-03-21T03:35:32.339Z,20.97
2019-03-21T03:38:02.630Z,42.97
2019-03-21T03:40:37.382Z,47.87
2019-03-21T03:43:07.865Z,33.90
2019-03-21T03:45:38.685Z,48.80
2019-03-21T03:48:09.376Z,37.87
2019-03-21T03:50:39.867Z,35.17
2019-03-21T03:53:10.367Z,29.90
2019-03-21T03:55:40.904Z,42.23
2019-03-21T03:58:13.433Z,33.83
2019-03-21T04:00:43.943Z,32.27
2019-03-21T04:03:14.402Z,31.60
2019-03-21T04:05:44.868Z,42.07
2019-03-21T04:08:15.486Z,42.53
2019-03-21T04:10:46.835Z,39.63
2019-03-21T04:13:17.350Z,40.13
2019-03-21T04:15:53.305Z,43.27
2019-03-21T04:18:20.489Z,49.27
2019-03-21T04:20:51.385Z,27.90
2019-03-21T04:23:21.964Z,38.30
2019-03-21T04:25:56.207Z,32.77
2019-03-21T04:28:26.658Z,36.27
2019-03-21T04:30:57.158Z,38.23
2019-03-21T04:33:27.512Z,47.63
2019-03-21T04:35:58.031Z,50.00
2019-03-21T04:38:28.317Z,44.10
2019-03-21T04:40:58.889Z,37.27
2019-03-21T04:43:29.811Z,41.83
2019-03-21T04:46:03.756Z,45.10
2019-03-21T04:48:32.279Z,29.00
2019-03-21T04:51:02.539Z,28.37
2019-03-21T04:53:33.047Z,37.63
2019-03-21T04:56:03.570Z,41.87
2019-03-21T04:58:33.957Z,48.70
2019-03-21T05:01:04.146Z,44.93
2019-03-21T05:03:34.428Z,18.70
2019-03-21T05:06:04.839Z,25.63
2019-03-21T05:08:35.338Z,53.10
2019-03-21T05:11:05.847Z,31.93
2019-03-21T05:13:36.125Z,36.33
2019-03-21T05:16:14.724Z,30.93
2019-03-21T05:18:41.369Z,34.93
2019-03-21T05:21:13.366Z,38.87
2019-03-21T05:23:43.841Z,26.97
2019-03-21T05:26:14.879Z,44.00
2019-03-21T05:28:45.223Z,33.83
2019-03-21T05:31:28.177Z,59.97
2019-03-21T05:33:58.786Z,32.90
2019-03-21T05:36:35.292Z,37.90
2019-03-21T05:39:08.446Z,35.77
2019-03-21T05:41:41.673Z,30.87
2019-03-21T05:44:26.876Z,37.03
2019-03-21T05:47:00.145Z,57.97
2019-03-21T05:49:30.454Z,45.57
2019-03-21T05:52:00.802Z,64.80
2019-03-21T05:54:31.115Z,35.27
2019-03-21T05:57:01.435Z,41.50
2019-03-21T06:00:29.700Z,45.93
2019-03-21T06:03:02.645Z,71.30
2019-03-21T06:05:33.407Z,58.07
2019-03-21T06:08:11.682Z,28.40
2019-03-21T06:10:42.166Z,48.10
2019-03-21T06:13:12.482Z,38.73
2019-03-21T06:15:42.913Z,45.93
2019-03-21T06:18:44.798Z,36.17
2019-03-21T06:21:30.472Z,35.00
2019-03-21T06:24:44.898Z,53.47
2019-03-21T06:27:28.685Z,52.47
2019-03-21T06:29:59.651Z,49.07
2019-03-21T06:32:30.094Z,61.83
2019-03-21T06:35:00.591Z,58.10
2019-03-21T06:37:31.190Z,42.03
2019-03-21T06:40:01.599Z,54.80
2019-03-21T06:42:32.006Z,81.27
2019-03-21T06:45:03.942Z,119.27
2019-03-21T06:47:34.210Z,111.40
2019-03-21T06:50:04.700Z,82.67
2019-03-21T06:52:35.194Z,85.40
2019-03-21T06:55:06.362Z,73.23
2019-03-21T06:57:36.802Z,96.50
2019-03-21T07:00:07.793Z,84.73
2019-03-21T07:02:38.151Z,72.90
2019-03-21T07:05:08.759Z,60.60
2019-03-21T07:07:39.942Z,75.57
2019-03-21T07:10:14.766Z,92.60
2019-03-21T07:12:45.200Z,87.83
2019-03-21T07:15:15.478Z,100.67
2019-03-21T07:17:45.850Z,84.23
2019-03-21T07:20:16.068Z,99.90
2019-03-21T07:22:46.430Z,77.73
2019-03-21T07:25:16.786Z,68.10
2019-03-21T07:27:46.995Z,89.27
2019-03-21T07:30:18.033Z,81.57
2019-03-21T07:32:48.416Z,89.93
2019-03-21T07:35:18.816Z,93.37
2019-03-21T07:37:49.218Z,82.83
2019-03-21T07:40:19.632Z,77.47
2019-03-21T07:42:54.683Z,97.03
2019-03-21T07:45:25.066Z,107.73
2019-03-21T07:47:55.434Z,66.83
2019-03-21T07:50:25.769Z,108.10
2019-03-21T07:52:56.202Z,57.23
2019-03-21T07:55:26.596Z,90.03
2019-03-21T07:57:59.357Z,92.70
2019-03-21T08:00:29.168Z,73.87
2019-03-21T08:02:59.616Z,84.43
2019-03-21T08:05:39.847Z,70.37
2019-03-21T08:08:02.178Z,57.50
2019-03-21T08:10:32.619Z,79.17
2019-03-21T08:13:03.024Z,65.77
2019-03-21T08:15:33.473Z,82.07
2019-03-21T08:18:03.904Z,71.73
2019-03-21T08:20:34.578Z,80.50
2019-03-21T08:23:05.120Z,84.43
2019-03-21T08:25:35.481Z,80.87
2019-03-21T08:28:05.965Z,72.53
2019-03-21T08:30:37.409Z,77.90
2019-03-21T08:33:07.688Z,69.07
2019-03-21T08:35:38.246Z,85.53
2019-03-21T08:38:08.653Z,72.17
2019-03-21T08:44:11.559Z,66.27
2019-03-21T08:46:41.865Z,71.20
2019-03-21T08:49:12.213Z,67.57
2019-03-21T08:51:42.579Z,62.77
2019-03-21T08:54:12.937Z,70.47
2019-03-21T08:56:43.205Z,70.53
2019-03-21T08:59:13.906Z,65.47
2019-03-21T09:01:44.425Z,58.60
2019-03-21T09:04:14.883Z,77.30
2019-03-21T09:06:45.173Z,72.73
2019-03-21T09:09:15.375Z,67.13
2019-03-21T09:11:45.656Z,60.80
2019-03-21T09:14:16.033Z,73.77
2019-03-21T09:16:46.441Z,69.13
2019-03-21T09:19:16.802Z,77.57
2019-03-21T09:21:47.347Z,65.20
2019-03-21T09:24:17.850Z,64.27
2019-03-21T09:26:48.464Z,63.97
2019-03-21T09:29:19.732Z,57.83
2019-03-21T09:31:50.293Z,49.70
2019-03-21T09:34:20.842Z,60.33
2019-03-21T09:36:51.566Z,58.07
2019-03-21T09:39:22.164Z,50.87
2019-03-21T09:41:52.675Z,56.97
2019-03-21T09:44:25.109Z,49.13
2019-03-21T09:46:55.803Z,48.97
2019-03-21T09:49:26.375Z,48.93
2019-03-21T09:51:56.945Z,44.87
2019-03-21T09:54:27.495Z,41.07
2019-03-21T09:56:58.037Z,47.60
2019-03-21T09:59:28.687Z,45.57
2019-03-21T10:01:59.015Z,43.40
2019-03-21T10:04:48.189Z,47.13
2019-03-21T10:07:19.100Z,49.10
2019-03-21T10:09:49.469Z,45.30
2019-03-21T10:12:19.913Z,44.93
2019-03-21T10:14:50.187Z,53.23
2019-03-21T10:17:20.526Z,62.03
2019-03-21T10:19:50.830Z,49.13
2019-03-21T10:22:21.245Z,44.40
2019-03-21T10:24:51.593Z,51.97
2019-03-21T10:27:21.966Z,54.57
2019-03-21T10:29:52.486Z,69.47
2019-03-21T10:32:22.903Z,65.50
2019-03-21T10:34:53.371Z,63.77
2019-03-21T10:37:23.744Z,67.70
2019-03-21T10:39:54.047Z,65.20
2019-03-21T10:42:26.084Z,66.80
2019-03-21T10:44:56.496Z,70.03
2019-03-21T10:47:27.088Z,62.53
2019-03-21T10:49:57.316Z,62.17
2019-03-21T10:52:27.757Z,57.17
2019-03-21T10:54:58.038Z,60.83
2019-03-21T10:57:28.519Z,49.37
2019-03-21T11:00:01.475Z,51.03
2019-03-21T11:02:30.838Z,43.97
2019-03-21T11:05:01.349Z,58.87
2019-03-21T11:07:31.910Z,57.73
2019-03-21T11:13:34.766Z,65.63
2019-03-21T11:16:05.063Z,51.07
2019-03-21T11:18:36.449Z,54.90
2019-03-21T11:21:06.962Z,63.27
2019-03-21T11:23:37.209Z,56.33
2019-03-21T11:26:07.892Z,51.07
2019-03-21T11:28:38.264Z,49.63
2019-03-21T11:31:08.687Z,52.83
2019-03-21T11:33:39.122Z,48.73
2019-03-21T11:36:09.562Z,40.67
2019-03-21T11:42:57.145Z,42.17
2019-03-21T11:45:27.847Z,36.13
2019-03-21T11:47:59.849Z,43.20
2019-03-21T11:50:30.318Z,44.67
2019-03-21T11:53:00.734Z,40.50
2019-03-21T11:59:03.874Z,33.90
2019-03-21T12:01:34.291Z,31.23
2019-03-21T12:04:04.734Z,33.93
2019-03-21T12:06:35.148Z,27.27
2019-03-21T12:13:02.125Z,29.30
2019-03-21T12:15:32.586Z,28.60
2019-03-21T12:18:03.056Z,33.27
2019-03-21T12:20:39.479Z,31.20
2019-03-21T12:23:10.835Z,30.17
2019-03-21T12:29:13.982Z,31.73
2019-03-21T12:31:44.417Z,27.43
2019-03-21T12:34:14.756Z,31.17
2019-03-21T12:36:45.224Z,29.33
2019-03-21T12:39:15.610Z,29.67
2019-03-21T12:41:46.110Z,32.70
2019-03-21T12:44:16.408Z,26.17
2019-03-21T12:46:46.747Z,25.97
2019-03-21T12:49:17.197Z,33.13
2019-03-21T12:51:47.632Z,32.17
2019-03-21T12:54:18.044Z,28.20
2019-03-21T12:56:48.393Z,27.13
2019-03-21T12:59:18.753Z,32.90
2019-03-21T13:01:49.078Z,37.30
2019-03-21T13:04:19.511Z,30.77
2019-03-21T13:06:49.901Z,25.93
2019-03-21T13:09:20.463Z,31.67
2019-03-21T13:11:50.911Z,27.93
2019-03-21T13:14:21.315Z,32.27
2019-03-21T13:16:51.731Z,29.30
2019-03-21T13:19:22.025Z,27.83
2019-03-21T13:21:52.488Z,30.60
2019-03-21T13:28:10.465Z,31.87
2019-03-21T13:30:40.842Z,30.00
2019-03-21T13:33:11.319Z,25.33
2019-03-21T13:35:41.727Z,31.07
2019-03-21T13:38:12.201Z,31.43
2019-03-21T13:40:42.553Z,27.97
2019-03-21T13:43:12.919Z,32.57
2019-03-21T13:45:43.181Z,30.90
2019-03-21T13:48:13.497Z,32.47
2019-03-21T13:50:43.913Z,29.00
2019-03-21T13:53:18.850Z,29.63
2019-03-21T13:55:46.414Z,31.70
2019-03-21T13:58:16.766Z,27.70
2019-03-21T14:00:47.029Z,34.33
2019-03-21T14:03:25.041Z,33.23
2019-03-21T14:05:49.447Z,34.07
2019-03-21T14:08:19.713Z,36.43
2019-03-21T14:10:49.991Z,36.77
2019-03-21T14:13:20.381Z,32.63
2019-03-21T14:15:50.665Z,29.10
2019-03-21T14:18:21.054Z,34.57
2019-03-21T14:20:51.317Z,33.10
2019-03-21T14:23:21.603Z,31.40
2019-03-21T14:25:51.825Z,31.37
2019-03-21T14:28:22.215Z,30.93
2019-03-21T14:30:52.598Z,30.17
2019-03-21T14:33:22.963Z,35.13
2019-03-21T14:35:53.287Z,30.83
2019-03-21T14:38:26.292Z,29.10
2019-03-21T14:48:09.083Z,32.77
2019-03-21T14:50:39.404Z,29.60
2019-03-21T14:53:09.710Z,29.27
2019-03-21T14:55:47.497Z,38.40
2019-03-21T14:58:11.973Z,33.93
2019-03-21T15:00:42.500Z,36.30
2019-03-21T15:03:12.957Z,34.03
2019-03-21T15:05:43.377Z,35.37
2019-03-21T15:08:13.832Z,31.10
2019-03-21T15:10:44.189Z,27.73
2019-03-21T15:13:14.678Z,32.13
2019-03-21T15:15:45.064Z,35.27
2019-03-21T15:18:15.442Z,37.67
2019-03-21T15:20:45.913Z,27.27
2019-03-21T15:23:16.392Z,35.73
2019-03-21T15:29:28.329Z,33.30
2019-03-21T15:31:58.866Z,33.67
2019-03-21T15:34:29.364Z,36.53
2019-03-21T15:36:59.740Z,33.93
2019-03-21T15:43:26.526Z,32.53
2019-03-21T15:45:56.985Z,34.70
2019-03-21T15:48:27.524Z,33.70
2019-03-21T15:51:04.282Z,33.17
2019-03-21T15:53:30.176Z,32.87
2019-03-21T15:56:00.579Z,37.80
2019-03-21T15:58:31.036Z,36.53
2019-03-21T16:01:01.913Z,34.50
2019-03-21T16:03:32.314Z,28.47
2019-03-21T16:06:02.994Z,32.67
2019-03-21T16:08:33.341Z,33.87
2019-03-21T16:14:21.434Z,40.57
2019-03-21T16:16:51.917Z,42.33
2019-03-21T16:19:22.304Z,28.20
2019-03-21T16:21:52.672Z,41.13
2019-03-21T16:28:31.306Z,31.97
2019-03-21T16:31:02.234Z,30.33
2019-03-21T16:33:32.972Z,36.03
2019-03-21T16:36:03.396Z,32.70
2019-03-21T16:38:33.842Z,30.97
2019-03-21T16:41:04.273Z,37.30
2019-03-21T16:43:34.756Z,34.00
2019-03-21T16:46:05.229Z,31.10
2019-03-21T16:48:35.753Z,31.43
2019-03-21T16:51:06.374Z,31.67
2019-03-21T16:53:36.789Z,32.03
2019-03-21T16:56:07.429Z,38.37
2019-03-21T16:58:37.720Z,32.27
2019-03-21T17:01:08.886Z,31.07
2019-03-21T17:03:42.769Z,37.30
2019-03-21T17:06:13.173Z,48.17
2019-03-21T17:08:44.843Z,42.10
2019-03-21T17:11:15.794Z,36.70
2019-03-21T17:13:49.229Z,33.60
2019-03-21T17:16:22.329Z,36.77
2019-03-21T17:18:53.019Z,35.63
2019-03-21T17:21:25.818Z,43.50
2019-03-21T17:23:56.279Z,39.53
2019-03-21T17:26:27.033Z,30.57
2019-03-21T17:28:57.544Z,32.17
2019-03-21T17:31:27.909Z,38.40
2019-03-21T17:33:58.128Z,38.37
2019-03-21T17:36:28.473Z,35.50
2019-03-21T17:38:58.815Z,32.87
2019-03-21T17:45:19.383Z,42.77
2019-03-21T17:47:49.633Z,46.93
2019-03-21T17:50:20.143Z,42.37
2019-03-21T17:52:50.444Z,41.00
2019-03-21T17:55:20.859Z,36.17
2019-03-21T17:57:51.223Z,47.73
2019-03-21T18:00:23.627Z,39.93
2019-03-21T18:02:54.013Z,39.60
2019-03-21T18:05:24.305Z,41.43
2019-03-21T18:07:54.602Z,46.30
2019-03-21T18:10:27.070Z,44.50
2019-03-21T18:12:57.843Z,45.47
2019-03-21T18:15:28.149Z,35.00
2019-03-21T18:17:58.506Z,37.23
2019-03-21T18:20:28.910Z,41.53
2019-03-21T18:22:59.193Z,42.90
2019-03-21T18:25:48.325Z,46.93
2019-03-21T18:28:18.685Z,44.57
2019-03-21T18:30:49.086Z,33.87
2019-03-21T18:33:19.541Z,42.83
2019-03-21T18:35:49.804Z,43.43
2019-03-21T18:38:20.115Z,43.80
2019-03-21T18:40:50.433Z,38.63
2019-03-21T18:43:20.633Z,48.87
2019-03-21T18:45:50.857Z,50.43
2019-03-21T18:48:21.041Z,56.57
2019-03-21T18:50:51.372Z,46.07
2019-03-21T18:53:21.631Z,39.23
2019-03-21T18:55:51.919Z,54.90
2019-03-21T18:58:22.145Z,37.43
2019-03-21T19:00:52.359Z,53.77
2019-03-21T19:03:22.590Z,52.17
2019-03-21T19:05:52.787Z,39.27
2019-03-21T19:08:23.069Z,46.63
2019-03-21T19:10:55.783Z,51.77
2019-03-21T19:13:26.103Z,53.23
2019-03-21T19:15:56.379Z,54.80
2019-03-21T19:18:26.590Z,69.53
2019-03-21T19:20:56.878Z,51.67
2019-03-21T19:23:27.302Z,54.83
2019-03-21T19:25:59.735Z,66.23
2019-03-21T19:28:30.013Z,61.03
2019-03-21T19:31:00.304Z,60.73
2019-03-21T19:33:30.651Z,50.33
2019-03-21T19:36:00.918Z,59.17
2019-03-21T19:38:31.135Z,67.57
2019-03-21T19:41:02.564Z,34.43
2019-03-21T19:43:32.919Z,49.50
2019-03-21T19:46:03.424Z,64.67
2019-03-21T19:48:33.801Z,39.83
2019-03-21T19:51:04.001Z,52.50
2019-03-21T19:53:34.436Z,54.33
2019-03-21T19:56:08.641Z,65.43
2019-03-21T19:58:36.584Z,57.37
2019-03-21T20:01:06.936Z,45.07
2019-03-21T20:03:37.313Z,45.43
2019-03-21T20:06:07.584Z,56.25
2019-03-21T20:08:37.852Z,68.37
2019-03-21T20:11:08.228Z,70.80
2019-03-21T20:13:38.577Z,62.50
2019-03-21T20:16:08.876Z,76.40
2019-03-21T20:18:39.288Z,70.17
2019-03-21T20:21:09.645Z,67.93
2019-03-21T20:23:39.887Z,45.70
2019-03-21T20:26:10.449Z,68.57
2019-03-21T20:28:40.704Z,66.43
2019-03-21T20:31:11.106Z,49.73
2019-03-21T20:33:41.377Z,63.70
2019-03-21T20:36:11.845Z,64.00
2019-03-21T20:38:42.268Z,61.43
2019-03-21T20:41:12.703Z,49.13
2019-03-21T20:43:42.973Z,64.67
2019-03-21T20:46:13.344Z,63.03
2019-03-21T20:48:41.528Z,48.33
2019-03-21T20:51:11.822Z,45.23
2019-03-21T20:53:42.078Z,61.83
2019-03-21T20:56:12.327Z,62.33
2019-03-21T20:58:42.633Z,48.13
2019-03-21T21:01:12.879Z,64.73
2019-03-21T21:03:43.219Z,63.67
2019-03-21T21:06:13.497Z,58.13
2019-03-21T21:08:43.751Z,64.83
2019-03-21T21:11:14.095Z,54.07
2019-03-21T21:13:44.578Z,76.63
2019-03-21T21:16:14.846Z,63.63
2019-03-21T21:18:45.098Z,62.47
2019-03-21T21:21:15.566Z,69.40
2019-03-21T21:23:46.054Z,53.57
2019-03-21T21:26:16.631Z,67.53
2019-03-21T21:28:47.140Z,44.07
2019-03-21T21:31:17.639Z,72.67
2019-03-21T21:33:48.102Z,59.67
2019-03-21T21:36:22.135Z,61.27
2019-03-21T21:38:51.146Z,56.60
2019-03-21T21:41:21.639Z,65.00
2019-03-21T21:43:52.331Z,55.07
2019-03-21T21:46:22.842Z,77.77
2019-03-21T21:48:53.390Z,70.30
2019-03-21T21:51:23.802Z,78.07
2019-03-21T21:53:54.642Z,67.13
2019-03-21T21:56:25.322Z,73.07
2019-03-21T21:58:55.722Z,71.73
2019-03-21T22:01:26.325Z,63.40
2019-03-21T22:04:04.574Z,63.80
2019-03-21T22:06:28.922Z,84.10
2019-03-21T22:08:59.400Z,64.23
2019-03-21T22:11:30.006Z,72.90
2019-03-21T22:14:00.826Z,75.57
2019-03-21T22:16:31.412Z,73.03
2019-03-21T22:19:01.990Z,66.40
2019-03-21T22:21:32.528Z,72.60
2019-03-21T22:24:03.068Z,79.43
2019-03-21T22:26:33.680Z,62.23
2019-03-21T22:29:04.044Z,48.60
2019-03-21T22:31:34.641Z,67.27
2019-03-21T22:34:05.082Z,79.70
2019-03-21T22:36:35.484Z,79.43
2019-03-21T22:39:07.900Z,80.40
2019-03-21T22:41:38.422Z,83.67
2019-03-21T22:44:08.945Z,78.37
2019-03-21T22:46:39.471Z,58.77
2019-03-21T22:49:09.944Z,79.50
2019-03-21T22:51:40.507Z,72.50
2019-03-21T22:54:11.043Z,72.57
2019-03-21T22:56:42.089Z,62.03
2019-03-21T22:59:12.622Z,87.13
2019-03-21T23:01:43.271Z,70.80
2019-03-21T23:04:13.622Z,78.27
2019-03-21T23:06:44.028Z,75.40
2019-03-21T23:09:14.397Z,79.03
2019-03-21T23:11:44.677Z,83.57
2019-03-21T23:14:15.423Z,62.97
2019-03-21T23:16:45.737Z,80.57
2019-03-21T23:19:16.023Z,86.23
2019-03-21T23:21:46.274Z,77.73
2019-03-21T23:24:16.596Z,70.43
2019-03-21T23:26:52.943Z,79.90
2019-03-21T23:29:18.880Z,78.43
2019-03-21T23:32:08.311Z,81.37
2019-03-21T23:34:38.663Z,71.97
2019-03-21T23:37:09.097Z,87.33
2019-03-21T23:39:39.534Z,94.03
2019-03-21T23:42:09.857Z,92.17
2019-03-21T23:44:40.118Z,80.67
2019-03-21T23:47:10.585Z,99.20
2019-03-21T23:49:40.922Z,77.13
2019-03-21T23:52:11.198Z,90.43
2019-03-21T23:54:41.949Z,96.90
2019-03-21T23:57:12.257Z,83.33
2019-03-21T23:59:43.483Z,96.33
